Time;durP1;ratioP1;P1;durP2;ratioP2;P2;SDS_P1;SDS_P2;PMS_P1;PMS_P2;Temp;Humidity;BMP_temperature;BMP_pressure;BME280_temperature;BME280_humidity;BME280_pressure;Samples;Min_cycle;Max_cycle;Signal;HPM_P1;HPM_P2
2022/11/30 00:00:01;;;;;;;4.60;4.20;;;;;;;20.17;51.55;97537.81;5032976;28;20210;-92
2022/11/30 00:02:28;;;;;;;4.87;4.43;;;;;;;19.34;51.17;97397.13;5012557;28;20260;-92
2022/11/30 00:04:55;;;;;;;4.87;4.47;;;;;;;20.59;51.11;97600.56;5026617;28;20179;-92
2022/11/30 00:07:24;;;;;;;4.00;3.70;;;;;;;20.60;51.09;97596.34;5030121;28;20194;-92
2022/11/30 00:09:51;;;;;;;4.50;4.10;;;;;;;20.23;51.26;97552.47;5022167;28;20202;-91
2022/11/30 00:12:17;;;;;;;4.37;3.97;;;;;;;20.53;50.96;97581.59;5028976;28;20267;-92
2022/11/30 00:14:44;;;;;;;4.73;4.20;;;;;;;20.59;51.27;97598.00;5031230;28;20178;-92
2022/11/30 00:17:11;;;;;;;5.20;4.70;;;;;;;20.58;50.94;97598.84;5030068;28;20214;-92
2022/11/30 00:19:37;;;;;;;4.60;4.20;;;;;;;19.67;51.36;97443.34;5044739;28;20187;-92
2022/11/30 00:22:04;;;;;;;4.30;3.90;;;;;;;21.06;51.19;97684.81;5028419;28;20179;-92
2022/11/30 00:24:31;;;;;;;5.40;4.90;;;;;;;20.62;51.38;97607.44;5032740;28;20182;-92
2022/11/30 00:26:57;;;;;;;4.83;4.43;;;;;;;19.67;51.40;97458.63;5031181;28;20247;-92
2022/11/30 00:29:24;;;;;;;5.23;4.70;;;;;;;21.06;51.10;97695.03;5026017;28;20211;-92
2022/11/30 00:31:55;;;;;;;4.40;4.00;;;;;;;20.60;51.29;97617.59;5044613;28;20187;-91
2022/11/30 00:34:21;;;;;;;4.73;4.33;;;;;;;20.60;51.36;97611.66;5029507;28;20189;-92
2022/11/30 00:36:50;;;;;;;5.20;4.70;;;;;;;19.69;51.45;97455.31;5034143;28;20188;-92
2022/11/30 00:39:17;;;;;;;4.40;4.00;;;;;;;19.25;51.44;97384.03;5052792;28;20195;-92
2022/11/30 00:41:43;;;;;;;4.83;4.43;;;;;;;19.74;51.16;97486.94;5034806;28;20269;-92
2022/11/30 00:44:10;;;;;;;5.10;4.70;;;;;;;20.56;51.33;97613.22;5030869;28;20192;-92
2022/11/30 00:46:36;;;;;;;4.73;4.33;;;;;;;20.83;51.26;97662.69;5030247;28;20197;-93
2022/11/30 00:49:03;;;;;;;4.60;4.20;;;;;;;19.78;51.74;97480.28;5031268;28;20228;-92
2022/11/30 00:51:30;;;;;;;4.83;4.43;;;;;;;20.62;51.37;97640.63;5029471;28;20203;-92
2022/11/30 00:53:56;;;;;;;4.50;4.10;;;;;;;21.00;51.40;97705.06;5038211;28;20179;-92
2022/11/30 00:56:23;;;;;;;4.90;4.50;;;;;;;20.18;51.56;97556.53;5030091;28;20242;-92
2022/11/30 00:58:50;;;;;;;4.73;4.33;;;;;;;20.00;51.31;97541.44;5032622;28;20182;-92
2022/11/30 01:01:16;;;;;;;4.50;4.10;;;;;;;21.07;51.40;97711.22;5025898;28;20205;-92
2022/11/30 01:03:43;;;;;;;4.97;4.47;;;;;;;19.45;51.17;97451.88;5028816;28;20196;-91
2022/11/30 01:06:10;;;;;;;4.50;4.10;;;;;;;19.42;51.16;97435.63;5019834;28;20217;-91
2022/11/30 01:08:36;;;;;;;5.17;4.63;;;;;;;19.98;51.25;97552.41;5028894;28;20209;-92
2022/11/30 01:11:23;;;;;;;4.60;4.20;;;;;;;20.60;51.39;97639.75;5029868;28;20206;-92
2022/11/30 01:13:50;;;;;;;4.80;4.40;;;;;;;21.06;51.34;97710.38;5021918;28;20246;-92
2022/11/30 01:16:18;;;;;;;4.80;4.40;;;;;;;20.52;51.41;97618.16;5027848;28;20251;-92
2022/11/30 01:18:45;;;;;;;5.10;4.70;;;;;;;19.63;51.22;97464.44;5026631;28;20218;-92
2022/11/30 01:21:14;;;;;;;5.10;4.60;;;;;;;19.70;51.13;97491.88;5026802;28;20225;-92
2022/11/30 01:23:40;;;;;;;4.87;4.37;;;;;;;20.10;51.30;97560.50;5009120;28;20182;-92
2022/11/30 01:26:07;;;;;;;4.73;4.20;;;;;;;19.95;50.85;97532.72;5010599;28;20293;-93
2022/11/30 01:28:33;;;;;;;4.80;4.40;;;;;;;20.08;51.26;97555.34;5029383;28;20234;-93
2022/11/30 01:31:05;;;;;;;4.80;4.40;;;;;;;19.89;51.45;97535.94;5007156;28;21374;-92
2022/11/30 01:33:32;;;;;;;5.47;4.97;;;;;;;19.65;51.33;97490.84;5025726;28;20179;-92
2022/11/30 01:35:59;;;;;;;6.10;5.17;;;;;;;21.07;51.27;97731.66;5024476;28;20209;-92
2022/11/30 01:38:29;;;;;;;5.53;4.90;;;;;;;21.03;51.36;97728.16;5004622;28;20418;-91
2022/11/30 01:40:56;;;;;;;5.03;4.53;;;;;;;20.47;51.20;97628.22;5026653;28;20210;-92
2022/11/30 01:43:45;;;;;;;4.80;4.40;;;;;;;20.64;51.09;97656.88;5019531;28;20179;-92
2022/11/30 01:46:45;;;;;;;5.30;4.80;;;;;;;21.07;51.33;97731.66;5027131;28;20218;-92
2022/11/30 01:49:18;;;;;;;5.20;4.70;;;;;;;19.98;51.37;97538.81;5017814;28;20215;-92
2022/11/30 01:51:50;;;;;;;4.73;4.33;;;;;;;20.59;51.29;97643.97;5010083;28;20233;-92
2022/11/30 01:54:25;;;;;;;5.10;4.67;;;;;;;20.56;51.46;97646.41;5021443;28;20184;-92
2022/11/30 01:56:56;;;;;;;5.20;4.77;;;;;;;21.07;51.32;97731.66;5018010;28;20189;-92
2022/11/30 01:59:23;;;;;;;5.23;4.73;;;;;;;20.53;51.40;97641.19;5009564;28;20197;-92
2022/11/30 02:01:50;;;;;;;4.37;4.03;;;;;;;20.61;51.31;97661.91;5015482;28;20195;-92
2022/11/30 02:04:31;;;;;;;4.63;4.23;;;;;;;21.05;51.39;97743.53;5016944;28;20229;-92
2022/11/30 02:06:58;;;;;;;5.47;4.97;;;;;;;19.90;51.40;97542.78;5042888;28;20186;-92
2022/11/30 02:09:25;;;;;;;4.93;4.53;;;;;;;20.04;50.90;97556.00;5022880;28;20215;-92
2022/11/30 02:11:51;;;;;;;5.00;4.50;;;;;;;20.95;51.13;97718.47;5043727;28;20191;-92
2022/11/30 02:14:32;;;;;;;5.30;4.80;;;;;;;21.06;51.31;97732.50;5038530;28;20182;-93
2022/11/30 02:17:05;;;;;;;5.30;4.80;;;;;;;21.07;51.31;97737.66;5041093;28;20193;-93
2022/11/30 02:19:57;;;;;;;5.13;4.73;;;;;;;21.07;51.20;97739.31;5021388;28;20206;-91
2022/11/30 02:22:49;;;;;;;5.03;4.53;;;;;;;21.06;51.35;97740.16;5041515;28;20226;-92
2022/11/30 02:25:25;;;;;;;5.37;4.87;;;;;;;20.64;51.16;97675.66;5036868;28;20191;-92
2022/11/30 02:28:10;;;;;;;5.20;4.73;;;;;;;21.05;51.30;97734.16;5019743;28;20206;-92
2022/11/30 02:30:39;;;;;;;5.37;4.87;;;;;;;19.21;51.12;97424.59;5042282;28;20203;-92
2022/11/30 02:33:11;;;;;;;5.33;4.83;;;;;;;19.49;51.25;97476.69;5006649;28;20179;-92
2022/11/30 02:35:39;;;;;;;5.30;4.80;;;;;;;19.61;51.27;97502.63;5012406;28;20198;-92
2022/11/30 02:38:06;;;;;;;5.70;5.20;;;;;;;20.48;51.20;97641.84;5028766;28;20222;-93
2022/11/30 02:40:32;;;;;;;5.07;4.67;;;;;;;19.85;50.94;97534.09;5026824;28;20256;-92
2022/11/30 02:42:59;;;;;;;5.20;4.70;;;;;;;19.92;51.08;97553.03;5031272;28;20213;-92
2022/11/30 02:45:33;;;;;;;5.50;5.00;;;;;;;20.59;51.06;97673.72;5043309;28;20213;-91
2022/11/30 02:48:09;;;;;;;5.23;4.73;;;;;;;20.54;51.35;97663.34;5042198;28;20207;-92
2022/11/30 02:50:47;;;;;;;5.70;5.10;;;;;;;21.05;51.12;97740.97;5048147;28;20211;-92
2022/11/30 02:53:14;;;;;;;4.97;4.57;;;;;;;19.81;51.23;97529.69;5020023;28;20254;-92
2022/11/30 02:55:40;;;;;;;5.43;4.93;;;;;;;20.56;51.33;97653.19;5020114;28;20190;-94
2022/11/30 02:58:07;;;;;;;5.17;4.67;;;;;;;21.04;51.32;97737.53;5021719;28;20191;-91
2022/11/30 03:00:33;;;;;;;5.60;5.00;;;;;;;20.58;51.64;97652.44;5020036;28;20278;-93
2022/11/30 03:03:00;;;;;;;5.73;5.23;;;;;;;20.21;51.29;97590.69;5020123;28;20194;-92
2022/11/30 03:05:26;;;;;;;5.03;4.60;;;;;;;19.48;51.56;97484.28;5026405;28;20175;-92
2022/11/30 03:07:53;;;;;;;5.30;4.80;;;;;;;19.63;51.47;97505.22;5030294;28;20190;-92
2022/11/30 03:10:20;;;;;;;5.63;4.97;;;;;;;20.53;51.59;97643.75;5038800;28;20231;-92
2022/11/30 03:12:46;;;;;;;5.17;4.67;;;;;;;19.24;51.20;97420.50;5026000;28;20206;-92
2022/11/30 03:15:13;;;;;;;6.50;5.50;;;;;;;20.54;51.40;97648.03;5024964;28;20187;-92
2022/11/30 03:17:39;;;;;;;5.40;4.90;;;;;;;20.15;51.40;97587.94;5021823;28;20185;-92
2022/11/30 03:20:07;;;;;;;5.27;4.80;;;;;;;20.52;51.03;97633.50;5025198;28;20317;-92
2022/11/30 03:22:33;;;;;;;5.90;5.30;;;;;;;19.67;50.92;97502.84;5033507;28;20226;-92
2022/11/30 03:25:00;;;;;;;5.80;5.13;;;;;;;19.60;51.25;97498.31;5020795;28;20202;-92
2022/11/30 03:27:26;;;;;;;5.90;5.30;;;;;;;19.67;51.25;97515.59;5017744;28;20242;-93
2022/11/30 03:29:53;;;;;;;6.40;5.70;;;;;;;20.03;50.95;97574.69;5018097;28;20224;-93
2022/11/30 03:32:19;;;;;;;6.10;5.50;;;;;;;19.63;51.09;97508.63;5025301;28;20179;-92
2022/11/30 03:34:46;;;;;;;5.90;5.30;;;;;;;20.55;51.18;97661.69;5011093;28;20179;-91
2022/11/30 03:37:13;;;;;;;6.07;5.47;;;;;;;20.65;51.00;97685.03;5027194;28;20203;-92
2022/11/30 03:39:40;;;;;;;5.73;5.23;;;;;;;19.82;50.86;97558.63;5019984;28;20178;-93
2022/11/30 03:42:06;;;;;;;6.10;5.50;;;;;;;19.47;51.48;97485.06;5023067;28;20187;-93
2022/11/30 03:44:33;;;;;;;5.87;5.37;;;;;;;19.62;51.31;97519.66;5028792;28;20209;-92
2022/11/30 03:46:59;;;;;;;5.80;5.30;;;;;;;19.40;50.99;97476.34;5056420;23;20213;-92
2022/11/30 03:49:26;;;;;;;6.53;5.77;;;;;;;20.56;51.14;97679.59;5026909;28;20207;-91
2022/11/30 03:51:52;;;;;;;6.20;5.57;;;;;;;20.53;51.25;97673.50;5008545;28;20184;-92
2022/11/30 03:54:20;;;;;;;6.20;5.60;;;;;;;19.15;51.66;97444.75;5004471;28;20208;-92
2022/11/30 03:56:47;;;;;;;6.50;5.70;;;;;;;20.49;51.20;97669.13;5005246;28;20211;-91
2022/11/30 03:59:13;;;;;;;6.47;5.77;;;;;;;19.78;51.08;97552.53;4998881;28;20194;-92
2022/11/30 04:01:40;;;;;;;6.40;5.80;;;;;;;20.58;51.27;97688.19;5000725;28;20261;-91
2022/11/30 04:04:06;;;;;;;6.50;5.90;;;;;;;19.64;51.12;97520.59;4998388;28;20239;-92
2022/11/30 04:06:33;;;;;;;6.40;5.67;;;;;;;20.59;51.18;97682.25;5006926;28;20223;-91
2022/11/30 04:09:00;;;;;;;6.60;5.90;;;;;;;19.72;51.33;97551.47;5008426;28;20212;-92
2022/11/30 04:11:26;;;;;;;6.90;6.03;;;;;;;20.44;51.17;97663.84;5008401;28;20203;-92
2022/11/30 04:13:53;;;;;;;7.03;6.33;;;;;;;19.64;50.92;97537.56;5000263;28;20183;-92
2022/11/30 04:16:19;;;;;;;6.70;6.00;;;;;;;19.67;51.27;97538.53;4999921;28;20195;-91
2022/11/30 04:18:46;;;;;;;6.60;5.70;;;;;;;20.55;51.00;97677.00;5001900;28;20179;-91
2022/11/30 04:21:12;;;;;;;7.20;6.00;;;;;;;19.77;50.88;97565.22;4996160;28;20214;-91
2022/11/30 04:23:39;;;;;;;6.80;6.10;;;;;;;19.91;51.46;97577.69;4991221;28;20210;-93
2022/11/30 04:26:07;;;;;;;8.03;6.73;;;;;;;19.65;50.96;97550.34;4998368;28;20208;-92
2022/11/30 04:28:34;;;;;;;6.93;6.13;;;;;;;21.03;51.08;97757.94;4991880;28;20232;-92
2022/11/30 04:31:01;;;;;;;6.80;6.20;;;;;;;19.45;51.07;97482.47;5007465;28;20206;-92
2022/11/30 04:33:28;;;;;;;6.63;5.93;;;;;;;21.03;50.97;97756.25;4992722;28;20189;-91
2022/11/30 04:35:56;;;;;;;6.20;5.50;;;;;;;19.66;51.22;97521.50;4998374;28;20199;-92
2022/11/30 04:38:23;;;;;;;7.37;6.20;;;;;;;19.21;51.20;97445.84;5008786;28;20183;-91
2022/11/30 04:40:50;;;;;;;6.70;6.00;;;;;;;19.50;51.05;97498.81;5010444;28;20259;-93
2022/11/30 04:43:16;;;;;;;7.13;6.43;;;;;;;19.69;51.05;97525.84;5015904;28;20235;-92
2022/11/30 04:45:43;;;;;;;7.17;6.37;;;;;;;20.30;51.18;97648.84;5016275;28;20325;-92
2022/11/30 04:48:10;;;;;;;6.73;6.03;;;;;;;19.65;51.01;97541.81;5008496;28;20196;-93
2022/11/30 04:50:38;;;;;;;6.90;6.00;;;;;;;19.72;51.36;97552.31;5016804;28;20245;-92
2022/11/30 04:53:04;;;;;;;7.50;6.57;;;;;;;20.52;51.20;97679.44;5004581;28;20188;-92
2022/11/30 04:55:31;;;;;;;7.70;6.43;;;;;;;19.37;51.18;97481.34;5016309;28;20223;-92
2022/11/30 04:57:58;;;;;;;6.43;5.83;;;;;;;20.34;51.43;97643.06;5008475;28;20199;-92
2022/11/30 05:00:24;;;;;;;7.37;6.67;;;;;;;19.47;51.19;97506.34;5006310;28;20291;-92
2022/11/30 05:02:51;;;;;;;7.00;6.30;;;;;;;19.70;50.77;97556.50;5003635;28;20184;-91
2022/11/30 05:05:18;;;;;;;7.07;6.20;;;;;;;20.13;51.01;97609.09;5005193;28;20183;-92
2022/11/30 05:07:48;;;;;;;7.00;6.03;;;;;;;20.16;51.32;97615.16;4994331;28;20204;-92
2022/11/30 05:10:15;;;;;;;7.43;6.63;;;;;;;19.41;51.18;97488.28;4991988;28;20216;-92
2022/11/30 05:12:42;;;;;;;7.50;6.70;;;;;;;19.89;51.23;97575.88;4997276;28;20193;-92
2022/11/30 05:15:09;;;;;;;7.70;6.90;;;;;;;19.61;51.12;97537.44;4999042;28;20190;-92
2022/11/30 05:17:35;;;;;;;8.07;6.90;;;;;;;19.83;51.53;97585.84;5000776;28;20184;-92
2022/11/30 05:20:02;;;;;;;7.80;6.63;;;;;;;19.95;50.97;97582.06;5012294;28;20211;-92
2022/11/30 05:22:29;;;;;;;7.30;6.30;;;;;;;19.70;50.86;97545.44;5000707;28;20183;-92
2022/11/30 05:24:55;;;;;;;7.63;6.63;;;;;;;19.60;50.81;97515.31;5005277;28;20250;-92
2022/11/30 05:27:22;;;;;;;10.00;7.37;;;;;;;19.45;51.01;97497.75;5004645;28;20180;-92
2022/11/30 05:29:48;;;;;;;7.17;6.47;;;;;;;19.65;50.84;97529.09;4998313;28;20274;-92
2022/11/30 05:32:15;;;;;;;8.10;7.00;;;;;;;20.55;51.45;97684.66;5002951;28;20247;-92
2022/11/30 05:34:41;;;;;;;8.27;7.33;;;;;;;19.51;51.14;97520.94;5004815;28;20196;-92
2022/11/30 05:37:17;;;;;;;8.67;7.40;;;;;;;19.61;50.87;97520.47;4999457;28;20209;-92
2022/11/30 05:39:44;;;;;;;8.80;7.27;;;;;;;20.54;50.94;97688.03;5006011;28;20199;-92
2022/11/30 05:42:10;;;;;;;8.83;7.93;;;;;;;19.71;51.08;97554.81;5013334;28;20246;-92
2022/11/30 05:44:37;;;;;;;9.17;7.40;;;;;;;19.71;50.96;97557.34;4983643;28;20191;-92
2022/11/30 05:47:03;;;;;;;9.23;7.40;;;;;;;20.18;51.03;97621.22;5007683;28;20270;-92
2022/11/30 05:49:30;;;;;;;8.27;7.27;;;;;;;20.16;51.02;97622.81;4995932;28;20210;-92
2022/11/30 05:51:57;;;;;;;7.53;6.67;;;;;;;20.55;51.35;97693.19;5009108;28;20182;-92
2022/11/30 05:54:23;;;;;;;7.13;6.43;;;;;;;20.57;51.16;97686.44;4991267;28;20184;-92
2022/11/30 05:56:50;;;;;;;8.50;6.83;;;;;;;19.61;51.50;97524.69;4995781;28;20183;-92
2022/11/30 05:59:20;;;;;;;8.17;7.03;;;;;;;20.56;50.75;97694.03;4995120;28;20180;-90
2022/11/30 06:01:47;;;;;;;10.03;6.87;;;;;;;20.51;51.19;97676.00;4993293;28;20246;-91
2022/11/30 06:04:14;;;;;;;8.83;6.87;;;;;;;20.14;51.29;97634.69;4992207;28;20255;-92
2022/11/30 06:06:40;;;;;;;7.83;6.77;;;;;;;19.67;50.96;97537.66;4970880;28;20331;-92
2022/11/30 06:09:09;;;;;;;8.33;7.07;;;;;;;18.96;51.01;97438.13;4996517;28;20205;-93
2022/11/30 06:11:41;;;;;;;8.37;7.13;;;;;;;20.57;51.07;97699.22;4978091;28;20386;-90
2022/11/30 06:14:08;;;;;;;7.47;6.70;;;;;;;19.56;51.16;97531.28;5006964;28;20175;-91
2022/11/30 06:16:37;;;;;;;8.13;6.80;;;;;;;20.10;51.02;97614.06;4998395;28;20196;-91
2022/11/30 06:19:04;;;;;;;7.93;7.10;;;;;;;20.02;51.10;97618.00;4992714;28;20225;-91
2022/11/30 06:21:31;;;;;;;8.40;7.37;;;;;;;20.64;51.26;97713.94;4986181;28;20235;-90
2022/11/30 06:23:57;;;;;;;7.50;6.43;;;;;;;19.75;51.14;97559.22;4983841;28;20204;-91
2022/11/30 06:26:24;;;;;;;11.07;6.97;;;;;;;20.80;51.42;97739.22;4992676;28;20260;-90
2022/11/30 06:28:50;;;;;;;7.60;6.83;;;;;;;19.75;51.06;97561.78;5001231;28;20183;-90
2022/11/30 06:31:17;;;;;;;10.23;7.03;;;;;;;20.57;51.32;97704.31;4998812;28;20282;-90
2022/11/30 06:33:44;;;;;;;8.17;6.60;;;;;;;20.56;51.25;97699.16;4983096;28;20214;-90
2022/11/30 06:36:10;;;;;;;13.87;9.43;;;;;;;20.46;51.04;97700.50;4994200;28;20194;-90
2022/11/30 06:38:37;;;;;;;9.50;8.13;;;;;;;20.62;51.07;97704.47;5005172;28;20203;-91
2022/11/30 06:41:04;;;;;;;9.17;7.80;;;;;;;20.37;50.89;97668.69;5009108;28;20230;-91
2022/11/30 06:43:35;;;;;;;14.40;9.87;;;;;;;19.81;50.48;97575.59;5014142;28;20186;-91
2022/11/30 06:46:02;;;;;;;16.20;12.60;;;;;;;20.79;49.22;97750.25;5008881;28;20191;-91
2022/11/30 06:48:29;;;;;;;15.77;11.50;;;;;;;20.85;49.19;97754.69;5005361;28;20191;-91
2022/11/30 06:50:56;;;;;;;19.07;11.03;;;;;;;20.60;49.53;97709.53;4990956;28;20237;-91
2022/11/30 06:53:22;;;;;;;17.13;12.47;;;;;;;20.60;49.42;97711.25;4993192;28;20806;-90
2022/11/30 06:55:49;;;;;;;16.53;12.07;;;;;;;19.91;49.48;97599.75;4990456;28;20242;-92
2022/11/30 06:58:15;;;;;;;17.53;11.47;;;;;;;19.57;49.24;97536.44;4991497;28;20525;-90
2022/11/30 07:00:42;;;;;;;16.07;10.93;;;;;;;20.99;49.80;97789.31;5009312;28;20624;-91
2022/11/30 07:03:09;;;;;;;13.63;10.97;;;;;;;21.07;49.83;97808.31;4997817;28;20505;-92
2022/11/30 07:05:43;;;;;;;12.40;10.17;;;;;;;20.22;49.82;97650.28;4989484;28;20222;-91
2022/11/30 07:08:13;;;;;;;16.97;10.73;;;;;;;20.49;50.07;97697.22;5008636;28;20211;-90
2022/11/30 07:10:40;;;;;;;13.70;10.50;;;;;;;20.02;50.50;97622.28;4997790;28;20235;-90
2022/11/30 07:13:11;;;;;;;17.47;10.80;;;;;;;19.99;50.37;97604.31;4963093;28;20196;-90
2022/11/30 07:15:38;;;;;;;17.67;11.57;;;;;;;19.69;49.09;97549.66;4993184;28;20247;-91
2022/11/30 07:18:05;;;;;;;13.37;10.57;;;;;;;19.75;48.12;97560.06;4984188;28;20270;-90
2022/11/30 07:20:32;;;;;;;13.03;11.07;;;;;;;20.11;47.43;97616.66;4985323;28;20252;-90
2022/11/30 07:26:05;;;;;;;15.77;11.57;;;;;;;21.07;46.87;97790.44;4988209;28;20176;-92
2022/11/30 07:28:30;;;;;;;14.50;12.00;;;;;;;19.95;45.47;97625.44;5003973;28;20198;-91
2022/11/30 07:30:57;;;;;;;16.30;12.53;;;;;;;20.14;44.67;97644.00;5001849;28;20211;-91
2022/11/30 07:33:23;;;;;;;15.53;11.73;;;;;;;19.71;44.94;97585.41;4995549;28;20248;-92
2022/11/30 07:35:52;;;;;;;14.93;12.27;;;;;;;20.11;44.04;97654.06;4997415;28;20180;-91
2022/11/30 07:38:19;;;;;;;15.47;12.13;;;;;;;19.85;44.10;97604.63;4992057;28;20180;-91
2022/11/30 07:40:45;;;;;;;15.30;12.53;;;;;;;20.46;43.97;97715.81;4991413;28;20207;-91
2022/11/30 07:43:12;;;;;;;15.57;12.43;;;;;;;20.52;43.77;97735.63;4996753;28;20192;-90
2022/11/30 07:45:38;;;;;;;16.73;12.23;;;;;;;20.49;44.74;97718.47;4994917;28;20203;-90
2022/11/30 07:48:05;;;;;;;16.37;12.20;;;;;;;19.95;45.07;97639.88;4987231;28;20198;-89
2022/11/30 07:50:32;;;;;;;16.90;11.67;;;;;;;19.62;45.29;97583.38;5003008;28;20303;-90
2022/11/30 07:52:58;;;;;;;16.97;11.23;;;;;;;19.53;45.50;97567.75;4992571;28;20179;-89
2022/11/30 07:55:25;;;;;;;15.10;12.27;;;;;;;20.78;45.38;97780.84;4998960;28;20206;-90
2022/11/30 07:57:52;;;;;;;24.77;12.57;;;;;;;20.02;44.75;97664.81;4991908;28;20230;-90
2022/11/30 08:00:18;;;;;;;17.50;12.90;;;;;;;19.51;45.35;97569.34;4984851;28;20204;-91
2022/11/30 08:02:45;;;;;;;15.37;11.60;;;;;;;19.42;45.50;97558.81;4984852;28;20222;-90
2022/11/30 08:05:11;;;;;;;17.47;12.37;;;;;;;19.50;45.77;97580.38;4963837;28;20276;-90
2022/11/30 08:07:38;;;;;;;15.20;12.07;;;;;;;19.75;46.28;97644.22;5004246;28;20184;-90
2022/11/30 08:10:05;;;;;;;15.67;12.03;;;;;;;20.44;46.65;97749.75;4999349;28;20238;-90
2022/11/30 08:12:32;;;;;;;17.23;10.80;;;;;;;19.76;46.73;97638.31;5000334;28;20203;-90
2022/11/30 08:14:58;;;;;;;13.77;11.37;;;;;;;20.93;47.15;97833.34;5005987;28;20186;-90
2022/11/30 08:17:45;;;;;;;12.93;10.57;;;;;;;19.55;47.06;97589.06;5003987;28;20187;-90
2022/11/30 08:20:11;;;;;;;15.20;11.37;;;;;;;20.46;47.53;97756.66;4993397;28;20491;-90
2022/11/30 08:22:38;;;;;;;11.77;9.93;;;;;;;20.44;47.50;97753.19;4990428;28;20181;-90
2022/11/30 08:25:05;;;;;;;16.90;10.73;;;;;;;20.46;47.70;97761.75;4993524;28;20280;-90
2022/11/30 08:27:32;;;;;;;16.13;10.00;;;;;;;20.30;47.21;97728.84;5000296;28;20204;-90
2022/11/30 08:29:58;;;;;;;14.20;10.00;;;;;;;19.91;47.97;97658.44;5001459;28;20238;-89
2022/11/30 08:32:25;;;;;;;11.50;10.27;;;;;;;19.97;48.08;97673.97;4995628;28;20180;-89
2022/11/30 08:34:51;;;;;;;14.33;9.73;;;;;;;20.04;48.19;97693.78;4983868;28;20196;-90
2022/11/30 08:37:18;;;;;;;11.23;9.40;;;;;;;20.19;48.15;97704.59;4999140;28;20179;-90
2022/11/30 08:39:44;;;;;;;11.77;9.50;;;;;;;20.48;48.31;97756.72;5007142;28;20210;-90
2022/11/30 08:42:11;;;;;;;13.23;9.90;;;;;;;20.49;48.34;97748.25;5008359;28;20238;-90
2022/11/30 08:44:38;;;;;;;10.77;9.13;;;;;;;20.45;48.13;97744.72;5003214;28;20223;-90
2022/11/30 08:47:06;;;;;;;14.73;9.80;;;;;;;20.02;48.43;97693.72;5007430;28;20215;-91
2022/11/30 08:49:32;;;;;;;11.97;9.13;;;;;;;20.96;48.60;97847.97;5006183;28;20513;-90
2022/11/30 08:51:59;;;;;;;10.83;9.03;;;;;;;20.97;48.60;97853.13;5009617;28;20226;-90
2022/11/30 08:54:44;;;;;;;12.37;9.67;;;;;;;19.91;48.66;97674.59;5005364;28;20212;-90
2022/11/30 08:57:13;;;;;;;10.13;8.90;;;;;;;20.35;48.62;97741.78;5003593;28;20226;-91
2022/11/30 08:59:39;;;;;;;10.70;9.03;;;;;;;19.93;48.75;97667.00;5002340;28;20207;-91
2022/11/30 09:02:08;;;;;;;9.63;8.00;;;;;;;19.52;48.65;97603.38;5008294;28;20203;-90
2022/11/30 09:04:35;;;;;;;10.30;8.57;;;;;;;20.63;48.92;97791.34;5005534;28;20194;-90
2022/11/30 09:07:02;;;;;;;9.83;8.13;;;;;;;20.19;48.88;97711.41;4999851;28;20255;-90
2022/11/30 09:09:29;;;;;;;10.50;8.57;;;;;;;20.41;48.86;97750.53;5003515;28;20180;-90
2022/11/30 09:11:55;;;;;;;10.27;8.63;;;;;;;19.28;49.08;97567.63;5011456;28;20220;-90
2022/11/30 09:14:22;;;;;;;10.63;8.90;;;;;;;19.52;48.62;97611.91;4997340;28;20180;-90
2022/11/30 09:16:48;;;;;;;9.50;8.07;;;;;;;19.88;49.00;97665.97;5002577;28;20183;-90
2022/11/30 09:19:15;;;;;;;10.20;8.70;;;;;;;20.50;49.10;97781.50;4997752;28;20176;-91
2022/11/30 09:21:42;;;;;;;9.53;8.53;;;;;;;19.56;49.10;97633.25;5008530;28;20249;-89
2022/11/30 09:24:17;;;;;;;9.47;8.20;;;;;;;20.17;49.38;97743.63;5000891;28;20175;-90
2022/11/30 09:26:43;;;;;;;11.57;9.10;;;;;;;20.46;48.89;97778.78;4982786;28;20184;-90
2022/11/30 09:29:10;;;;;;;9.10;7.73;;;;;;;19.98;49.15;97696.97;5000341;28;20203;-92
2022/11/30 09:31:36;;;;;;;11.67;8.67;;;;;;;19.63;49.18;97633.56;4996463;28;20295;-90
2022/11/30 09:34:03;;;;;;;8.73;7.83;;;;;;;20.90;49.13;97856.22;5005446;28;20214;-90
2022/11/30 09:36:31;;;;;;;11.57;9.20;;;;;;;19.73;49.32;97658.59;4999584;28;20184;-91
2022/11/30 09:38:58;;;;;;;13.37;10.17;;;;;;;20.82;48.27;97841.44;5001256;28;20210;-90
2022/11/30 09:41:44;;;;;;;10.67;8.87;;;;;;;20.88;48.58;97852.78;4986052;28;20204;-90
2022/11/30 09:44:10;;;;;;;12.27;9.47;;;;;;;20.96;48.56;97864.16;4988542;28;20180;-90
2022/11/30 09:46:39;;;;;;;13.17;8.93;;;;;;;19.98;48.69;97691.00;4983355;28;20263;-92
2022/11/30 09:49:12;;;;;;;10.70;8.83;;;;;;;20.47;48.77;97777.97;4996681;28;20189;-92
2022/11/30 09:51:41;;;;;;;10.50;9.00;;;;;;;20.98;48.80;97856.53;4979742;28;20216;-92
2022/11/30 09:54:36;;;;;;;10.53;8.63;;;;;;;20.42;48.93;97764.16;5001047;28;20210;-91
2022/11/30 09:57:11;;;;;;;9.93;8.87;;;;;;;20.49;48.91;97771.25;5007452;28;20405;-92
2022/11/30 09:59:38;;;;;;;9.53;8.30;;;;;;;19.44;48.97;97618.38;4980875;28;20202;-92
2022/11/30 10:02:15;;;;;;;10.00;8.50;;;;;;;19.46;48.92;97605.69;4982101;28;20272;-92
2022/11/30 10:04:41;;;;;;;8.60;7.70;;;;;;;20.08;49.24;97705.84;4987848;28;20266;-91
2022/11/30 10:07:18;;;;;;;9.53;7.93;;;;;;;20.17;49.10;97720.66;5004899;28;20211;-92
2022/11/30 10:10:00;;;;;;;9.33;8.30;;;;;;;19.90;49.19;97675.41;4998337;28;20270;-92
2022/11/30 10:13:17;;;;;;;8.70;7.70;;;;;;;20.97;49.42;97853.13;4993609;28;20229;-91
2022/11/30 10:15:49;;;;;;;9.40;8.40;;;;;;;20.97;49.36;97848.03;5003911;28;20191;-92
2022/11/30 10:18:31;;;;;;;8.70;7.80;;;;;;;20.97;49.42;97852.25;4997937;28;20206;-91
2022/11/30 10:21:14;;;;;;;8.83;7.93;;;;;;;19.81;49.56;97653.81;5008986;28;20302;-92
2022/11/30 10:24:10;;;;;;;8.80;7.60;;;;;;;20.98;49.42;97848.88;5004074;28;20199;-91
2022/11/30 10:26:38;;;;;;;8.80;7.40;;;;;;;19.88;49.50;97648.09;4992485;28;20192;-90
2022/11/30 10:29:11;;;;;;;8.77;7.87;;;;;;;20.97;49.67;97837.81;4983658;28;20195;-91
2022/11/30 10:31:38;;;;;;;8.60;7.50;;;;;;;20.99;49.65;97842.97;4983565;28;20260;-91
2022/11/30 10:34:11;;;;;;;8.03;6.83;;;;;;;20.96;49.65;97836.03;4964567;28;20251;-91
2022/11/30 10:36:43;;;;;;;8.67;7.23;;;;;;;20.29;49.49;97716.91;4987910;28;20207;-90
2022/11/30 10:39:26;;;;;;;7.73;6.93;;;;;;;20.65;49.90;97771.88;4989810;28;20645;-92
2022/11/30 10:42:03;;;;;;;7.63;6.83;;;;;;;20.24;49.80;97707.31;4982665;28;20204;-92
2022/11/30 10:44:32;;;;;;;7.57;6.73;;;;;;;20.95;49.71;97836.88;4974749;28;20274;-93
2022/11/30 10:47:12;;;;;;;9.30;7.03;;;;;;;19.73;49.80;97622.03;4986897;28;20262;-93
2022/11/30 10:49:42;;;;;;;8.00;6.63;;;;;;;19.97;49.55;97676.50;4993323;28;20184;-94
2022/11/30 10:52:11;;;;;;;8.10;7.00;;;;;;;20.96;50.03;97836.03;4971538;28;20235;-94
2022/11/30 10:54:38;;;;;;;8.50;7.30;;;;;;;19.22;50.04;97525.72;4987133;28;20180;-94
2022/11/30 10:57:04;;;;;;;7.63;6.83;;;;;;;20.38;49.80;97732.56;4992172;28;20195;-93
2022/11/30 10:59:51;;;;;;;8.70;7.63;;;;;;;19.95;50.06;97661.16;4977389;28;20176;-94
2022/11/30 11:02:38;;;;;;;7.40;6.47;;;;;;;20.98;49.56;97836.97;4964962;28;20183;-93
2022/11/30 11:05:27;;;;;;;7.77;6.93;;;;;;;20.37;49.63;97737.59;4997254;28;20175;-93
2022/11/30 11:08:02;;;;;;;7.77;6.97;;;;;;;19.81;49.80;97657.19;4969243;28;20203;-93
2022/11/30 11:10:43;;;;;;;8.37;6.90;;;;;;;19.72;49.81;97626.25;4993386;28;20226;-93
2022/11/30 11:13:18;;;;;;;7.70;6.53;;;;;;;19.81;49.89;97643.59;4990698;28;20191;-92
2022/11/30 11:15:55;;;;;;;7.80;7.00;;;;;;;20.08;49.74;97699.88;5000654;28;20183;-92
2022/11/30 11:18:32;;;;;;;7.60;6.47;;;;;;;19.69;49.80;97638.88;4985481;28;20187;-93
2022/11/30 11:20:59;;;;;;;8.20;6.73;;;;;;;20.98;49.53;97846.31;4999694;28;20227;-92
2022/11/30 11:23:35;;;;;;;7.83;6.60;;;;;;;20.97;49.91;97842.91;4993495;28;20191;-92
2022/11/30 11:26:02;;;;;;;8.10;7.10;;;;;;;20.36;49.88;97736.72;4989427;28;20184;-92
2022/11/30 11:28:29;;;;;;;7.67;6.30;;;;;;;19.60;49.88;97607.94;4976530;28;20199;-91
2022/11/30 11:30:56;;;;;;;8.20;6.93;;;;;;;19.52;49.67;97604.25;4993504;28;20219;-91
2022/11/30 11:33:27;;;;;;;7.53;6.60;;;;;;;19.19;49.82;97520.50;4992623;28;20211;-91
2022/11/30 11:35:55;;;;;;;9.70;7.30;;;;;;;20.97;49.77;97842.03;4987102;28;20187;-92
2022/11/30 11:38:21;;;;;;;7.17;6.47;;;;;;;20.97;50.47;97830.16;4991839;28;20198;-92
2022/11/30 11:41:04;;;;;;;7.97;7.17;;;;;;;20.58;49.83;97761.38;5007304;28;21632;-92